createdAt,value
2023-11-29T00:00:22.979Z,-6.95
2023-11-29T00:02:49.955Z,-6.93
2023-11-29T00:05:24.118Z,-6.90
2023-11-29T00:07:53.999Z,-6.89
2023-11-29T00:10:20.871Z,-6.88
2023-11-29T00:12:47.704Z,-6.86
2023-11-29T00:15:14.608Z,-6.82
2023-11-29T00:17:41.933Z,-6.78
2023-11-29T00:20:09.482Z,-6.77
2023-11-29T00:22:36.614Z,-6.76
2023-11-29T00:25:03.627Z,-6.73
2023-11-29T00:27:30.617Z,-6.72
2023-11-29T00:29:57.515Z,-6.72
2023-11-29T00:32:24.487Z,-6.67
2023-11-29T00:34:51.619Z,-6.66
2023-11-29T00:37:18.554Z,-6.64
2023-11-29T00:39:45.519Z,-6.65
2023-11-29T00:42:12.538Z,-6.62
2023-11-29T00:44:40.098Z,-6.60
2023-11-29T00:47:07.146Z,-6.56
2023-11-29T00:49:34.336Z,-6.54
2023-11-29T00:52:01.330Z,-6.54
2023-11-29T00:54:28.751Z,-6.52
2023-11-29T00:56:55.630Z,-6.51
2023-11-29T00:59:22.582Z,-6.48
2023-11-29T01:01:49.464Z,-6.47
2023-11-29T01:04:16.323Z,-6.44
2023-11-29T01:06:43.214Z,-6.43
2023-11-29T01:09:11.305Z,-6.43
2023-11-29T01:11:38.206Z,-6.47
2023-11-29T01:14:05.316Z,-6.46
2023-11-29T01:16:32.610Z,-6.43
2023-11-29T01:19:01.023Z,-6.40
2023-11-29T01:21:32.380Z,-6.42
2023-11-29T01:24:02.562Z,-6.41
2023-11-29T01:26:30.536Z,-6.44
2023-11-29T01:28:57.553Z,-6.44
2023-11-29T01:31:27.746Z,-6.43
2023-11-29T01:33:55.690Z,-6.40
2023-11-29T01:36:22.934Z,-6.42
2023-11-29T01:38:51.340Z,-6.46
2023-11-29T01:41:18.287Z,-6.52
2023-11-29T01:43:45.345Z,-6.54
2023-11-29T01:46:12.550Z,-6.53
2023-11-29T01:48:40.064Z,-6.52
2023-11-29T01:51:07.910Z,-6.55
2023-11-29T01:53:39.160Z,-6.55
2023-11-29T01:56:07.331Z,-6.54
2023-11-29T01:58:34.230Z,-6.51
2023-11-29T02:01:01.528Z,-6.54
2023-11-29T02:03:29.550Z,-6.54
2023-11-29T02:05:56.580Z,-6.56
2023-11-29T02:08:25.070Z,-6.59
2023-11-29T02:10:52.181Z,-6.59
2023-11-29T02:13:19.397Z,-6.60
2023-11-29T02:15:46.603Z,-6.60
2023-11-29T02:18:15.243Z,-6.58
2023-11-29T02:20:42.487Z,-6.58
2023-11-29T02:23:30.432Z,-6.55
2023-11-29T02:25:57.583Z,-6.57
2023-11-29T02:28:24.419Z,-6.55
2023-11-29T02:30:51.342Z,-6.52
2023-11-29T02:33:18.315Z,-6.52
2023-11-29T02:35:45.192Z,-6.54
2023-11-29T02:38:12.172Z,-6.49
2023-11-29T02:40:39.086Z,-6.50
2023-11-29T02:43:05.921Z,-6.47
2023-11-29T02:45:33.865Z,-6.45
2023-11-29T02:48:00.977Z,-6.44
2023-11-29T02:50:27.945Z,-6.42
2023-11-29T02:52:54.841Z,-6.41
2023-11-29T02:55:21.707Z,-6.44
2023-11-29T02:57:48.543Z,-6.44
2023-11-29T03:00:15.590Z,-6.45
2023-11-29T03:02:42.827Z,-6.44
2023-11-29T03:05:09.798Z,-6.45
2023-11-29T03:07:37.103Z,-6.48
2023-11-29T03:10:04.132Z,-6.52
2023-11-29T03:12:31.360Z,-6.55
2023-11-29T03:14:58.339Z,-6.59
2023-11-29T03:17:25.680Z,-6.60
2023-11-29T03:19:52.569Z,-6.55
2023-11-29T03:22:19.439Z,-6.50
2023-11-29T03:24:47.662Z,-6.46
2023-11-29T03:27:14.568Z,-6.46
2023-11-29T03:29:41.546Z,-6.45
2023-11-29T03:32:08.621Z,-6.43
2023-11-29T03:34:35.478Z,-6.44
2023-11-29T03:37:02.591Z,-6.44
2023-11-29T03:39:29.661Z,-6.45
2023-11-29T03:41:56.826Z,-6.49
2023-11-29T03:44:23.837Z,-6.50
2023-11-29T03:46:50.744Z,-6.49
2023-11-29T03:49:17.755Z,-6.50
2023-11-29T03:51:47.295Z,-6.55
2023-11-29T03:54:16.159Z,-6.48
2023-11-29T03:56:43.050Z,-6.58
2023-11-29T03:59:09.932Z,-6.58
2023-11-29T04:01:36.951Z,-6.59
2023-11-29T04:04:04.281Z,-6.61
2023-11-29T04:06:31.183Z,-6.62
2023-11-29T04:08:58.072Z,-6.65
2023-11-29T04:11:25.099Z,-6.68
2023-11-29T04:13:51.946Z,-6.67
2023-11-29T04:16:28.879Z,-6.65
2023-11-29T04:18:55.926Z,-6.73
2023-11-29T04:21:28.016Z,-6.73
2023-11-29T04:23:55.848Z,-6.73
2023-11-29T04:26:29.517Z,-6.68
2023-11-29T04:28:57.226Z,-6.73
2023-11-29T04:31:25.512Z,-6.73
2023-11-29T04:33:52.793Z,-6.75
2023-11-29T04:36:20.046Z,-6.74
2023-11-29T04:38:47.817Z,-6.76
2023-11-29T04:41:14.956Z,-6.77
2023-11-29T04:43:41.843Z,-6.79
2023-11-29T04:46:12.974Z,-6.79
2023-11-29T04:48:41.209Z,-6.81
2023-11-29T04:51:09.623Z,-6.81
2023-11-29T04:53:37.559Z,-6.83
2023-11-29T04:56:06.759Z,-6.82
2023-11-29T04:58:40.685Z,-6.86
2023-11-29T05:01:13.488Z,-6.86
2023-11-29T05:03:41.138Z,-6.90
2023-11-29T05:06:11.059Z,-6.95
2023-11-29T05:08:38.078Z,-6.98
2023-11-29T05:11:06.508Z,-7.01
2023-11-29T05:13:33.539Z,-7.04
2023-11-29T05:16:00.933Z,-7.08
2023-11-29T05:18:29.055Z,-7.11
2023-11-29T05:20:56.174Z,-7.14
2023-11-29T05:23:23.101Z,-7.15
2023-11-29T05:25:49.938Z,-7.17
2023-11-29T05:28:16.804Z,-7.19
2023-11-29T05:30:43.718Z,-7.22
2023-11-29T05:33:11.001Z,-7.23
2023-11-29T05:35:38.333Z,-7.26
2023-11-29T05:38:05.294Z,-7.26
2023-11-29T05:40:32.127Z,-7.26
2023-11-29T05:42:58.956Z,-7.29
2023-11-29T05:45:26.631Z,-7.26
2023-11-29T05:47:53.668Z,-7.26
2023-11-29T05:50:20.925Z,-7.25
2023-11-29T05:52:47.779Z,-7.25
2023-11-29T05:55:16.757Z,-7.24
2023-11-29T05:57:46.559Z,-7.24
2023-11-29T06:00:24.397Z,-7.22
2023-11-29T06:03:01.029Z,-7.16
2023-11-29T06:05:29.003Z,-7.11
2023-11-29T06:07:56.140Z,-7.05
2023-11-29T06:10:23.116Z,-7.00
2023-11-29T06:12:50.100Z,-6.98
2023-11-29T06:15:17.053Z,-6.95
2023-11-29T06:17:44.233Z,-6.89
2023-11-29T06:20:13.157Z,-6.85
2023-11-29T06:22:40.315Z,-6.79
2023-11-29T06:25:09.260Z,-6.79
2023-11-29T06:27:37.174Z,-6.76
2023-11-29T06:30:05.476Z,-6.74
2023-11-29T06:32:33.468Z,-6.71
2023-11-29T06:35:00.505Z,-6.69
2023-11-29T06:37:27.465Z,-6.67
2023-11-29T06:39:55.371Z,-6.66
2023-11-29T06:42:22.557Z,-6.63
2023-11-29T06:44:50.231Z,-6.59
2023-11-29T06:47:18.638Z,-6.60
2023-11-29T06:49:46.173Z,-6.56
2023-11-29T06:52:14.035Z,-6.60
2023-11-29T06:54:41.218Z,-6.62
2023-11-29T06:57:08.298Z,-6.59
2023-11-29T06:59:36.833Z,-6.56
2023-11-29T07:02:06.737Z,-6.50
2023-11-29T07:04:35.070Z,-6.45
2023-11-29T07:07:03.296Z,-6.40
2023-11-29T07:09:31.263Z,-6.39
2023-11-29T07:11:59.252Z,-6.40
2023-11-29T07:14:26.322Z,-6.42
2023-11-29T07:16:53.500Z,-6.39
2023-11-29T07:19:20.784Z,-6.39
2023-11-29T07:21:47.720Z,-6.40
2023-11-29T07:24:14.659Z,-6.38
2023-11-29T07:26:41.710Z,-6.37
2023-11-29T07:29:09.614Z,-6.32
2023-11-29T07:31:37.147Z,-6.30
2023-11-29T07:34:04.394Z,-6.32
2023-11-29T07:36:32.961Z,-6.29
2023-11-29T07:39:00.860Z,-6.28
2023-11-29T07:41:28.382Z,-6.24
2023-11-29T07:43:55.789Z,-6.18
2023-11-29T07:46:22.854Z,-6.14
2023-11-29T07:48:49.797Z,-6.11
2023-11-29T07:51:16.694Z,-6.10
2023-11-29T07:53:46.202Z,-6.07
2023-11-29T07:56:13.749Z,-6.08
2023-11-29T07:58:40.954Z,-6.11
2023-11-29T08:01:08.506Z,-6.13
2023-11-29T08:03:35.978Z,-6.15
2023-11-29T08:06:03.312Z,-6.12
2023-11-29T08:08:30.437Z,-6.09
2023-11-29T08:10:57.425Z,-6.05
2023-11-29T08:13:24.888Z,-6.00
2023-11-29T08:15:51.804Z,-5.92
2023-11-29T08:18:19.239Z,-5.86
2023-11-29T08:20:46.395Z,-5.86
2023-11-29T08:23:13.324Z,-5.88
2023-11-29T08:25:40.900Z,-5.88
2023-11-29T08:28:07.835Z,-5.88
2023-11-29T08:30:34.832Z,-5.86
2023-11-29T08:33:02.067Z,-5.87
2023-11-29T08:35:29.818Z,-5.87
2023-11-29T08:37:57.593Z,-5.87
2023-11-29T08:40:27.395Z,-5.83
2023-11-29T08:42:54.532Z,-5.81
2023-11-29T08:45:23.311Z,-5.79
2023-11-29T08:47:50.484Z,-5.79
2023-11-29T08:50:17.451Z,-5.78
2023-11-29T08:52:45.250Z,-5.78
2023-11-29T08:55:12.410Z,-5.76
2023-11-29T08:57:40.309Z,-5.76
2023-11-29T09:00:07.958Z,-5.74
2023-11-29T09:02:35.045Z,-5.72
2023-11-29T09:05:04.376Z,-5.71
2023-11-29T09:07:32.758Z,-5.68
2023-11-29T09:09:59.753Z,-5.65
2023-11-29T09:12:27.034Z,-5.62
2023-11-29T09:14:57.538Z,-5.60
2023-11-29T09:17:25.594Z,-5.59
2023-11-29T09:19:55.102Z,-5.57
2023-11-29T09:22:25.694Z,-5.52
2023-11-29T09:24:52.533Z,-5.51
2023-11-29T09:27:19.945Z,-5.49
2023-11-29T09:29:47.057Z,-5.46
2023-11-29T09:32:14.070Z,-5.44
2023-11-29T09:34:41.098Z,-5.40
2023-11-29T09:37:07.914Z,-5.42
2023-11-29T09:39:34.861Z,-5.40
2023-11-29T09:42:04.135Z,-5.34
2023-11-29T09:44:31.934Z,-5.35
2023-11-29T09:47:00.580Z,-5.33
2023-11-29T09:49:29.490Z,-5.32
2023-11-29T09:51:57.105Z,-5.32
2023-11-29T09:54:25.897Z,-5.27
2023-11-29T09:56:53.051Z,-5.25
2023-11-29T09:59:23.122Z,-5.22
2023-11-29T10:01:52.561Z,-5.21
2023-11-29T10:04:19.483Z,-5.22
2023-11-29T10:06:46.936Z,-5.22
2023-11-29T10:09:14.402Z,-5.20
2023-11-29T10:11:42.806Z,-5.18
2023-11-29T10:14:11.841Z,-5.13
2023-11-29T10:16:39.038Z,-5.16
2023-11-29T10:19:10.958Z,-5.13
2023-11-29T10:21:42.823Z,-5.10
2023-11-29T10:24:09.821Z,-4.98
2023-11-29T10:26:36.709Z,-5.09
2023-11-29T10:29:03.722Z,-5.12
2023-11-29T10:31:31.531Z,-5.11
2023-11-29T10:33:59.132Z,-5.11
2023-11-29T10:36:27.536Z,-5.08
2023-11-29T10:39:09.839Z,-5.05
2023-11-29T10:41:46.047Z,-5.04
2023-11-29T10:44:15.413Z,-5.07
2023-11-29T10:46:42.688Z,-5.07
2023-11-29T10:49:30.995Z,-4.96
2023-11-29T10:51:58.266Z,-4.99
2023-11-29T10:54:39.614Z,-4.94
2023-11-29T10:57:10.563Z,-4.88
2023-11-29T10:59:42.714Z,-4.80
2023-11-29T11:02:09.755Z,-4.76
2023-11-29T11:04:44.425Z,-4.69
2023-11-29T11:07:46.793Z,-4.62
2023-11-29T11:10:23.272Z,-4.61
2023-11-29T11:12:51.151Z,-4.63
2023-11-29T11:15:24.792Z,-4.56
2023-11-29T11:18:05.116Z,-4.47
2023-11-29T11:20:51.551Z,-4.39
2023-11-29T11:23:24.106Z,-4.37
2023-11-29T11:25:57.810Z,-4.34
2023-11-29T11:28:33.885Z,-4.35
2023-11-29T11:31:08.923Z,-4.32
2023-11-29T11:34:08.138Z,-4.28
2023-11-29T11:36:35.282Z,-4.37
2023-11-29T11:39:03.075Z,-4.38
2023-11-29T11:41:29.985Z,-4.35
2023-11-29T11:43:56.890Z,-4.34
2023-11-29T11:46:24.453Z,-4.34
2023-11-29T11:48:51.481Z,-4.31
2023-11-29T11:51:21.864Z,-4.28
2023-11-29T11:53:48.932Z,-4.26
2023-11-29T11:56:20.263Z,-4.20
2023-11-29T11:58:47.651Z,-4.17
2023-11-29T12:01:15.419Z,-4.13
2023-11-29T12:03:42.733Z,-4.14
2023-11-29T12:06:10.592Z,-4.16
2023-11-29T12:08:38.814Z,-4.20
2023-11-29T12:11:08.772Z,-4.19
2023-11-29T12:13:36.110Z,-4.22
2023-11-29T12:16:16.278Z,-4.15
2023-11-29T12:18:43.666Z,-4.20
2023-11-29T12:21:10.864Z,-4.19
2023-11-29T12:23:42.892Z,-4.16
2023-11-29T12:26:15.001Z,-4.15
2023-11-29T12:28:43.272Z,-4.18
2023-11-29T12:31:10.888Z,-4.17
2023-11-29T12:33:39.505Z,-4.13
2023-11-29T12:36:07.023Z,-4.10
2023-11-29T12:38:34.739Z,-4.07
2023-11-29T12:41:01.615Z,-4.05
2023-11-29T12:43:28.553Z,-4.00
2023-11-29T12:45:57.564Z,-3.96
2023-11-29T12:48:26.972Z,-3.97
2023-11-29T12:50:54.272Z,-3.94
2023-11-29T12:53:21.203Z,-3.92
2023-11-29T12:55:49.395Z,-3.86
2023-11-29T12:58:16.377Z,-3.83
2023-11-29T13:00:46.372Z,-3.81
2023-11-29T13:03:13.538Z,-3.77
2023-11-29T13:05:40.491Z,-3.76
2023-11-29T13:08:07.924Z,-3.76
2023-11-29T13:10:34.870Z,-3.77
2023-11-29T13:13:02.584Z,-3.77
2023-11-29T13:15:29.580Z,-3.80
2023-11-29T13:17:57.130Z,-3.82
2023-11-29T13:20:24.138Z,-3.88
2023-11-29T13:22:53.074Z,-3.90
2023-11-29T13:25:20.020Z,-3.94
2023-11-29T13:27:47.181Z,-3.99
2023-11-29T13:30:14.793Z,-4.05
2023-11-29T13:32:41.887Z,-4.11
2023-11-29T13:35:11.451Z,-4.14
2023-11-29T13:37:39.310Z,-4.17
2023-11-29T13:40:07.570Z,-4.18
2023-11-29T13:42:34.523Z,-4.19
2023-11-29T13:45:05.361Z,-4.22
2023-11-29T13:47:32.740Z,-4.25
2023-11-29T13:49:59.797Z,-4.25
2023-11-29T13:52:28.273Z,-4.25
2023-11-29T13:54:55.917Z,-4.26
2023-11-29T13:57:23.311Z,-4.27
2023-11-29T13:59:50.478Z,-4.30
2023-11-29T14:02:19.130Z,-4.29
2023-11-29T14:04:48.417Z,-4.28
2023-11-29T14:07:16.126Z,-4.28
2023-11-29T14:09:43.983Z,-4.27
2023-11-29T14:12:11.125Z,-4.27
2023-11-29T14:14:38.278Z,-4.26
2023-11-29T14:17:05.577Z,-4.25
2023-11-29T14:19:32.548Z,-4.25
2023-11-29T14:21:59.554Z,-4.25
2023-11-29T14:24:26.406Z,-4.19
2023-11-29T14:26:55.370Z,-4.11
2023-11-29T14:29:23.782Z,-3.82
2023-11-29T14:31:51.969Z,-3.76
2023-11-29T14:34:19.636Z,-3.70
2023-11-29T14:36:48.111Z,-3.72
2023-11-29T14:39:15.507Z,-3.75
2023-11-29T14:41:44.644Z,-3.76
2023-11-29T14:44:12.317Z,-3.73
2023-11-29T14:46:39.560Z,-3.67
2023-11-29T14:49:13.577Z,-3.68
2023-11-29T14:51:46.838Z,-3.65
2023-11-29T14:54:13.747Z,-3.57
2023-11-29T14:56:40.789Z,-3.55
2023-11-29T14:59:07.720Z,-3.50
2023-11-29T15:01:35.798Z,-3.42
2023-11-29T15:04:03.044Z,-3.47
2023-11-29T15:06:29.997Z,-3.48
2023-11-29T15:08:56.973Z,-3.50
2023-11-29T15:11:23.914Z,-3.53
2023-11-29T15:13:51.357Z,-3.55
2023-11-29T15:16:18.489Z,-3.53
2023-11-29T15:18:46.976Z,-3.51
2023-11-29T15:21:14.081Z,-3.43
2023-11-29T15:23:40.956Z,-3.32
2023-11-29T15:26:08.036Z,-3.30
2023-11-29T15:28:37.965Z,-3.29
2023-11-29T15:31:05.624Z,-3.27
2023-11-29T15:33:32.762Z,-3.18
2023-11-29T15:36:01.180Z,-3.19
2023-11-29T15:38:28.363Z,-3.18
2023-11-29T15:40:55.242Z,-3.19
2023-11-29T15:43:22.632Z,-3.19
2023-11-29T15:45:49.995Z,-3.23
2023-11-29T15:48:17.160Z,-3.26
2023-11-29T15:50:44.216Z,-3.28
2023-11-29T15:53:12.282Z,-3.35
2023-11-29T15:55:39.472Z,-3.34
2023-11-29T15:58:06.438Z,-3.29
2023-11-29T16:00:34.816Z,-3.27
2023-11-29T16:03:01.911Z,-3.26
2023-11-29T16:05:29.081Z,-3.23
2023-11-29T16:07:55.993Z,-3.22
2023-11-29T16:10:22.878Z,-3.19
2023-11-29T16:12:49.829Z,-3.14
2023-11-29T16:15:16.834Z,-3.05
2023-11-29T16:17:43.873Z,-3.01
2023-11-29T16:20:11.146Z,-2.98
2023-11-29T16:22:38.064Z,-2.91
2023-11-29T16:25:06.576Z,-2.85
2023-11-29T16:27:37.173Z,-2.85
2023-11-29T16:30:06.495Z,-2.82
2023-11-29T16:32:34.452Z,-2.84
2023-11-29T16:35:01.769Z,-2.86
2023-11-29T16:37:31.321Z,-2.90
2023-11-29T16:39:58.795Z,-2.91
2023-11-29T16:42:25.903Z,-2.95
2023-11-29T16:44:53.003Z,-2.96
2023-11-29T16:47:20.200Z,-2.96
2023-11-29T16:49:47.664Z,-2.92
2023-11-29T16:52:14.687Z,-2.91
2023-11-29T16:54:41.693Z,-2.89
2023-11-29T16:57:09.157Z,-2.90
2023-11-29T16:59:37.381Z,-2.89
2023-11-29T17:02:04.572Z,-2.84
2023-11-29T17:04:31.679Z,-2.84
2023-11-29T17:06:58.676Z,-2.80
2023-11-29T17:09:25.629Z,-2.79
2023-11-29T17:11:53.631Z,-2.73
2023-11-29T17:14:20.654Z,-2.66
2023-11-29T17:16:48.190Z,-2.63
2023-11-29T17:19:15.203Z,-2.62
2023-11-29T17:21:42.103Z,-2.62
2023-11-29T17:24:09.057Z,-2.57
2023-11-29T17:26:37.235Z,-2.63
2023-11-29T17:29:04.194Z,-2.65
2023-11-29T17:31:31.759Z,-2.67
2023-11-29T17:33:58.685Z,-2.68
2023-11-29T17:36:25.698Z,-2.66
2023-11-29T17:38:52.819Z,-2.64
2023-11-29T17:41:19.737Z,-2.61
2023-11-29T17:43:46.668Z,-2.58
2023-11-29T17:46:13.626Z,-2.52
2023-11-29T17:48:40.615Z,-2.50
2023-11-29T17:51:08.509Z,-2.42
2023-11-29T17:53:35.512Z,-2.42
2023-11-29T17:56:02.587Z,-2.45
2023-11-29T17:58:29.457Z,-2.44
2023-11-29T18:00:56.495Z,-2.47
2023-11-29T18:03:24.194Z,-2.44
2023-11-29T18:05:51.793Z,-2.31
2023-11-29T18:08:19.129Z,-2.30
2023-11-29T18:10:53.682Z,-2.29
2023-11-29T18:13:22.174Z,-2.24
2023-11-29T18:15:49.600Z,-2.29
2023-11-29T18:18:17.364Z,-2.31
2023-11-29T18:20:54.014Z,-2.30
2023-11-29T18:23:22.127Z,-2.31
2023-11-29T18:25:58.813Z,-2.29
2023-11-29T18:28:28.916Z,-2.34
2023-11-29T18:30:56.184Z,-2.36
2023-11-29T18:33:24.365Z,-2.22
2023-11-29T18:35:51.506Z,-2.03
2023-11-29T18:38:18.437Z,-2.01
2023-11-29T18:40:47.480Z,-2.06
2023-11-29T18:43:14.820Z,-2.07
2023-11-29T18:45:41.827Z,-2.13
2023-11-29T18:48:10.783Z,-2.13
2023-11-29T18:50:38.815Z,-2.14
2023-11-29T18:53:06.187Z,-2.11
2023-11-29T18:55:33.759Z,-2.06
2023-11-29T18:58:00.783Z,-2.05
2023-11-29T19:00:27.721Z,-2.04
2023-11-29T19:02:55.033Z,-2.04
2023-11-29T19:05:22.408Z,-2.05
2023-11-29T19:07:49.337Z,-2.02
2023-11-29T19:10:16.197Z,-2.00
2023-11-29T19:12:43.232Z,-2.00
2023-11-29T19:15:10.584Z,-2.00
2023-11-29T19:17:37.678Z,-2.00
2023-11-29T19:20:05.695Z,-2.00
2023-11-29T19:22:33.996Z,-1.98
2023-11-29T19:25:01.126Z,-1.93
2023-11-29T19:27:28.464Z,-1.90
2023-11-29T19:29:55.642Z,-1.89
2023-11-29T19:32:23.199Z,-1.85
2023-11-29T19:34:50.366Z,-1.86
2023-11-29T19:37:17.539Z,-1.81
2023-11-29T19:39:44.592Z,-1.85
2023-11-29T19:42:11.550Z,-1.81
2023-11-29T19:44:40.094Z,-1.80
2023-11-29T19:47:13.150Z,-1.80
2023-11-29T19:49:43.048Z,-1.75
2023-11-29T19:52:10.516Z,-1.69
2023-11-29T19:54:40.339Z,-1.72
2023-11-29T19:57:07.711Z,-1.71
2023-11-29T19:59:34.959Z,-1.76
2023-11-29T20:02:02.135Z,-1.77
2023-11-29T20:04:29.524Z,-1.70
2023-11-29T20:06:56.662Z,-1.68
2023-11-29T20:09:23.891Z,-1.73
2023-11-29T20:11:51.254Z,-1.67
2023-11-29T20:14:22.673Z,-1.57
2023-11-29T20:16:56.336Z,-1.53
2023-11-29T20:19:23.946Z,-1.51
2023-11-29T20:21:51.171Z,-1.55
2023-11-29T20:24:18.404Z,-1.57
2023-11-29T20:26:45.764Z,-1.60
2023-11-29T20:29:12.940Z,-1.58
2023-11-29T20:31:40.118Z,-1.57
2023-11-29T20:34:16.958Z,-1.62
2023-11-29T20:36:48.538Z,-1.61
2023-11-29T20:39:15.716Z,-1.58
2023-11-29T20:41:49.481Z,-1.61
2023-11-29T20:44:17.938Z,-1.56
2023-11-29T20:46:45.594Z,-1.60
2023-11-29T20:49:12.757Z,-1.60
2023-11-29T20:51:42.445Z,-1.64
2023-11-29T20:54:09.744Z,-1.67
2023-11-29T20:56:37.967Z,-1.65
2023-11-29T20:59:05.189Z,-1.70
2023-11-29T21:01:32.358Z,-1.74
2023-11-29T21:03:59.991Z,-1.78
2023-11-29T21:06:27.471Z,-1.79
2023-11-29T21:08:54.689Z,-1.74
2023-11-29T21:11:23.377Z,-1.69
2023-11-29T21:13:51.201Z,-1.73
2023-11-29T21:16:18.744Z,-1.79
2023-11-29T21:18:46.044Z,-1.74
2023-11-29T21:21:13.735Z,-1.78
2023-11-29T21:23:41.445Z,-1.78
2023-11-29T21:26:08.666Z,-1.79
2023-11-29T21:28:37.003Z,-1.83
2023-11-29T21:31:04.416Z,-1.84
2023-11-29T21:33:31.761Z,-1.84
2023-11-29T21:35:58.978Z,-1.81
2023-11-29T21:38:26.100Z,-1.84
2023-11-29T21:40:56.173Z,-1.82
2023-11-29T21:43:23.302Z,-1.87
2023-11-29T21:45:50.424Z,-1.86
2023-11-29T21:48:17.652Z,-1.89
2023-11-29T21:50:45.111Z,-1.90
2023-11-29T21:53:12.558Z,-1.86
2023-11-29T21:55:39.888Z,-1.82
2023-11-29T21:58:07.211Z,-1.76
2023-11-29T22:00:37.181Z,-1.74
2023-11-29T22:03:04.613Z,-1.67
2023-11-29T22:05:31.519Z,-1.66
2023-11-29T22:07:58.461Z,-1.68
2023-11-29T22:10:27.446Z,-1.68
2023-11-29T22:12:54.455Z,-1.68
2023-11-29T22:15:21.383Z,-1.73
2023-11-29T22:17:48.475Z,-1.71
2023-11-29T22:20:15.496Z,-1.75
2023-11-29T22:22:42.348Z,-1.70
2023-11-29T22:25:09.483Z,-1.66
2023-11-29T22:27:37.124Z,-1.67
2023-11-29T22:30:04.350Z,-1.63
2023-11-29T22:32:32.758Z,-1.62
2023-11-29T22:34:59.613Z,-1.63
2023-11-29T22:37:26.772Z,-1.64
2023-11-29T22:39:53.634Z,-1.64
2023-11-29T22:42:20.744Z,-1.66
2023-11-29T22:44:48.956Z,-1.69
2023-11-29T22:47:16.130Z,-1.64
2023-11-29T22:49:43.003Z,-1.63
2023-11-29T22:52:09.930Z,-1.60
2023-11-29T22:54:36.830Z,-1.60
2023-11-29T22:57:04.261Z,-1.61
2023-11-29T22:59:31.160Z,-1.53
2023-11-29T23:01:58.247Z,-1.51
2023-11-29T23:04:25.340Z,-1.55
2023-11-29T23:06:52.359Z,-1.59
2023-11-29T23:09:19.310Z,-1.57
2023-11-29T23:11:46.941Z,-1.56
2023-11-29T23:14:13.848Z,-1.54
2023-11-29T23:16:40.817Z,-1.53
2023-11-29T23:19:07.846Z,-1.48
2023-11-29T23:21:34.826Z,-1.47
2023-11-29T23:24:01.692Z,-1.45
2023-11-29T23:26:28.588Z,-1.47
2023-11-29T23:28:55.481Z,-1.46
2023-11-29T23:31:22.377Z,-1.49
2023-11-29T23:33:49.511Z,-1.51
2023-11-29T23:36:16.479Z,-1.54
2023-11-29T23:38:43.556Z,-1.57
2023-11-29T23:41:13.652Z,-1.56
2023-11-29T23:43:40.491Z,-1.57
2023-11-29T23:46:07.773Z,-1.53
2023-11-29T23:48:34.652Z,-1.53
2023-11-29T23:51:01.659Z,-1.50
2023-11-29T23:53:28.631Z,-1.50
2023-11-29T23:55:55.503Z,-1.49
2023-11-29T23:58:22.371Z,-1.51
